sensor_id;sensor_type;location;lat;lon;timestamp;P1;durP1;ratioP1;P2;durP2;ratioP2
64598;SDS011;51008;51.504;11.548;2023-02-01T00:00:54;18.15;;;2.88;;
64598;SDS011;51008;51.504;11.548;2023-02-01T00:05:56;15.30;;;2.55;;
64598;SDS011;51008;51.504;11.548;2023-02-01T00:11:05;13.23;;;2.35;;
64598;SDS011;51008;51.504;11.548;2023-02-01T00:16:11;15.90;;;2.90;;
64598;SDS011;51008;51.504;11.548;2023-02-01T00:21:23;15.45;;;2.70;;
64598;SDS011;51008;51.504;11.548;2023-02-01T00:26:36;9.85;;;2.20;;
64598;SDS011;51008;51.504;11.548;2023-02-01T00:31:39;15.65;;;2.60;;
64598;SDS011;51008;51.504;11.548;2023-02-01T00:36:42;18.30;;;2.60;;
64598;SDS011;51008;51.504;11.548;2023-02-01T00:41:43;16.92;;;3.13;;
64598;SDS011;51008;51.504;11.548;2023-02-01T00:46:44;13.05;;;2.50;;
64598;SDS011;51008;51.504;11.548;2023-02-01T00:51:45;17.95;;;2.63;;
64598;SDS011;51008;51.504;11.548;2023-02-01T00:56:46;11.98;;;3.13;;
64598;SDS011;51008;51.504;11.548;2023-02-01T01:01:47;19.73;;;2.92;;
64598;SDS011;51008;51.504;11.548;2023-02-01T01:06:48;15.38;;;3.33;;
64598;SDS011;51008;51.504;11.548;2023-02-01T01:11:49;11.43;;;2.55;;
64598;SDS011;51008;51.504;11.548;2023-02-01T01:16:50;21.80;;;3.38;;
64598;SDS011;51008;51.504;11.548;2023-02-01T01:21:51;15.27;;;3.53;;
64598;SDS011;51008;51.504;11.548;2023-02-01T01:26:52;18.55;;;3.60;;
64598;SDS011;51008;51.504;11.548;2023-02-01T01:31:53;15.30;;;3.10;;
64598;SDS011;51008;51.504;11.548;2023-02-01T01:36:54;15.18;;;3.13;;
64598;SDS011;51008;51.504;11.548;2023-02-01T01:41:55;15.45;;;3.40;;
64598;SDS011;51008;51.504;11.548;2023-02-01T01:46:59;24.48;;;3.47;;
64598;SDS011;51008;51.504;11.548;2023-02-01T01:52:01;25.90;;;3.38;;
64598;SDS011;51008;51.504;11.548;2023-02-01T01:57:04;13.70;;;3.20;;
64598;SDS011;51008;51.504;11.548;2023-02-01T02:02:09;28.48;;;3.75;;
64598;SDS011;51008;51.504;11.548;2023-02-01T02:07:11;25.80;;;3.22;;
64598;SDS011;51008;51.504;11.548;2023-02-01T02:12:20;19.52;;;2.95;;
64598;SDS011;51008;51.504;11.548;2023-02-01T02:17:34;24.02;;;3.45;;
64598;SDS011;51008;51.504;11.548;2023-02-01T02:22:49;18.10;;;3.47;;
64598;SDS011;51008;51.504;11.548;2023-02-01T02:39:00;22.25;;;4.63;;
64598;SDS011;51008;51.504;11.548;2023-02-01T02:49:49;22.80;;;3.67;;
64598;SDS011;51008;51.504;11.548;2023-02-01T02:54:54;18.52;;;3.55;;
64598;SDS011;51008;51.504;11.548;2023-02-01T02:59:58;22.52;;;3.72;;
64598;SDS011;51008;51.504;11.548;2023-02-01T03:05:03;26.65;;;3.83;;
64598;SDS011;51008;51.504;11.548;2023-02-01T03:10:05;19.38;;;3.58;;
64598;SDS011;51008;51.504;11.548;2023-02-01T03:15:32;23.80;;;4.77;;
64598;SDS011;51008;51.504;11.548;2023-02-01T03:20:38;20.02;;;4.00;;
64598;SDS011;51008;51.504;11.548;2023-02-01T03:25:42;21.25;;;3.50;;
64598;SDS011;51008;51.504;11.548;2023-02-01T03:30:44;22.27;;;3.50;;
64598;SDS011;51008;51.504;11.548;2023-02-01T03:40:56;17.70;;;3.20;;
64598;SDS011;51008;51.504;11.548;2023-02-01T03:46:05;23.20;;;4.18;;
64598;SDS011;51008;51.504;11.548;2023-02-01T03:51:11;19.02;;;3.72;;
64598;SDS011;51008;51.504;11.548;2023-02-01T03:56:14;18.58;;;3.88;;
64598;SDS011;51008;51.504;11.548;2023-02-01T04:01:18;22.70;;;3.75;;
64598;SDS011;51008;51.504;11.548;2023-02-01T04:06:20;21.45;;;3.20;;
64598;SDS011;51008;51.504;11.548;2023-02-01T04:11:22;17.33;;;3.65;;
64598;SDS011;51008;51.504;11.548;2023-02-01T04:16:23;24.60;;;4.25;;
64598;SDS011;51008;51.504;11.548;2023-02-01T04:21:25;23.33;;;4.03;;
64598;SDS011;51008;51.504;11.548;2023-02-01T04:26:26;27.13;;;4.30;;
64598;SDS011;51008;51.504;11.548;2023-02-01T04:31:27;18.17;;;3.33;;
64598;SDS011;51008;51.504;11.548;2023-02-01T04:36:28;18.17;;;3.30;;
64598;SDS011;51008;51.504;11.548;2023-02-01T04:41:29;11.73;;;2.50;;
64598;SDS011;51008;51.504;11.548;2023-02-01T04:46:30;20.75;;;2.92;;
64598;SDS011;51008;51.504;11.548;2023-02-01T04:51:31;17.67;;;2.85;;
64598;SDS011;51008;51.504;11.548;2023-02-01T04:56:33;20.50;;;3.33;;
64598;SDS011;51008;51.504;11.548;2023-02-01T05:01:34;19.50;;;3.97;;
64598;SDS011;51008;51.504;11.548;2023-02-01T05:06:35;25.50;;;4.00;;
64598;SDS011;51008;51.504;11.548;2023-02-01T05:11:36;19.40;;;3.40;;
64598;SDS011;51008;51.504;11.548;2023-02-01T05:16:37;17.65;;;4.10;;
64598;SDS011;51008;51.504;11.548;2023-02-01T05:21:38;29.70;;;4.13;;
64598;SDS011;51008;51.504;11.548;2023-02-01T05:26:40;18.05;;;3.25;;
64598;SDS011;51008;51.504;11.548;2023-02-01T05:31:41;19.27;;;3.53;;
64598;SDS011;51008;51.504;11.548;2023-02-01T05:36:44;24.05;;;4.05;;
64598;SDS011;51008;51.504;11.548;2023-02-01T05:41:45;22.67;;;3.90;;
64598;SDS011;51008;51.504;11.548;2023-02-01T05:46:46;22.13;;;4.22;;
64598;SDS011;51008;51.504;11.548;2023-02-01T05:51:47;23.55;;;4.20;;
64598;SDS011;51008;51.504;11.548;2023-02-01T05:56:48;21.63;;;4.45;;
64598;SDS011;51008;51.504;11.548;2023-02-01T06:01:49;12.68;;;3.20;;
64598;SDS011;51008;51.504;11.548;2023-02-01T06:06:50;20.85;;;3.88;;
64598;SDS011;51008;51.504;11.548;2023-02-01T06:11:51;32.03;;;4.13;;
64598;SDS011;51008;51.504;11.548;2023-02-01T06:16:52;25.90;;;3.63;;
64598;SDS011;51008;51.504;11.548;2023-02-01T06:21:53;15.88;;;3.13;;
64598;SDS011;51008;51.504;11.548;2023-02-01T06:26:54;16.58;;;3.00;;
64598;SDS011;51008;51.504;11.548;2023-02-01T06:31:55;23.98;;;3.78;;
64598;SDS011;51008;51.504;11.548;2023-02-01T06:36:56;19.13;;;3.45;;
64598;SDS011;51008;51.504;11.548;2023-02-01T06:41:57;19.27;;;3.88;;
64598;SDS011;51008;51.504;11.548;2023-02-01T06:46:57;20.27;;;4.05;;
64598;SDS011;51008;51.504;11.548;2023-02-01T06:51:58;25.52;;;4.55;;
64598;SDS011;51008;51.504;11.548;2023-02-01T06:56:59;17.05;;;2.95;;
64598;SDS011;51008;51.504;11.548;2023-02-01T07:02:00;21.42;;;3.40;;
64598;SDS011;51008;51.504;11.548;2023-02-01T07:07:01;16.75;;;3.42;;
64598;SDS011;51008;51.504;11.548;2023-02-01T07:12:03;13.65;;;3.60;;
64598;SDS011;51008;51.504;11.548;2023-02-01T07:17:04;19.13;;;3.30;;
64598;SDS011;51008;51.504;11.548;2023-02-01T07:22:05;17.17;;;3.40;;
64598;SDS011;51008;51.504;11.548;2023-02-01T07:27:06;18.63;;;4.10;;
64598;SDS011;51008;51.504;11.548;2023-02-01T07:32:07;13.05;;;3.33;;
64598;SDS011;51008;51.504;11.548;2023-02-01T07:37:08;12.80;;;3.42;;
64598;SDS011;51008;51.504;11.548;2023-02-01T07:42:09;17.02;;;3.50;;
64598;SDS011;51008;51.504;11.548;2023-02-01T07:47:10;12.07;;;3.60;;
64598;SDS011;51008;51.504;11.548;2023-02-01T07:52:11;12.98;;;3.40;;
64598;SDS011;51008;51.504;11.548;2023-02-01T07:57:12;14.55;;;3.53;;
64598;SDS011;51008;51.504;11.548;2023-02-01T08:02:13;15.15;;;3.30;;
64598;SDS011;51008;51.504;11.548;2023-02-01T08:07:13;18.13;;;4.10;;
64598;SDS011;51008;51.504;11.548;2023-02-01T08:12:15;15.70;;;3.53;;
64598;SDS011;51008;51.504;11.548;2023-02-01T08:17:15;16.70;;;3.97;;
64598;SDS011;51008;51.504;11.548;2023-02-01T08:22:17;9.25;;;3.55;;
64598;SDS011;51008;51.504;11.548;2023-02-01T08:27:17;15.98;;;4.00;;
64598;SDS011;51008;51.504;11.548;2023-02-01T08:32:19;21.30;;;4.95;;
64598;SDS011;51008;51.504;11.548;2023-02-01T08:37:20;15.88;;;4.32;;
64598;SDS011;51008;51.504;11.548;2023-02-01T08:42:21;21.52;;;4.97;;
64598;SDS011;51008;51.504;11.548;2023-02-01T08:47:22;17.58;;;5.38;;
64598;SDS011;51008;51.504;11.548;2023-02-01T08:52:23;15.20;;;5.45;;
64598;SDS011;51008;51.504;11.548;2023-02-01T08:57:24;14.85;;;4.60;;
64598;SDS011;51008;51.504;11.548;2023-02-01T09:02:25;18.63;;;5.38;;
64598;SDS011;51008;51.504;11.548;2023-02-01T09:07:26;10.38;;;5.05;;
64598;SDS011;51008;51.504;11.548;2023-02-01T09:12:28;22.20;;;4.65;;
64598;SDS011;51008;51.504;11.548;2023-02-01T09:17:30;12.15;;;4.03;;
64598;SDS011;51008;51.504;11.548;2023-02-01T09:22:31;15.63;;;3.60;;
64598;SDS011;51008;51.504;11.548;2023-02-01T09:27:32;25.52;;;4.15;;
64598;SDS011;51008;51.504;11.548;2023-02-01T09:32:33;12.60;;;3.40;;
64598;SDS011;51008;51.504;11.548;2023-02-01T09:37:34;11.88;;;3.22;;
64598;SDS011;51008;51.504;11.548;2023-02-01T09:42:42;11.70;;;3.75;;
64598;SDS011;51008;51.504;11.548;2023-02-01T09:47:53;15.50;;;3.22;;
64598;SDS011;51008;51.504;11.548;2023-02-01T09:52:59;13.05;;;3.10;;
64598;SDS011;51008;51.504;11.548;2023-02-01T09:58:07;24.67;;;3.72;;
64598;SDS011;51008;51.504;11.548;2023-02-01T10:03:13;14.02;;;3.22;;
64598;SDS011;51008;51.504;11.548;2023-02-01T10:13:50;15.88;;;3.30;;
64598;SDS011;51008;51.504;11.548;2023-02-01T10:19:04;12.95;;;2.75;;
64598;SDS011;51008;51.504;11.548;2023-02-01T10:29:41;18.55;;;3.75;;
64598;SDS011;51008;51.504;11.548;2023-02-01T10:34:57;20.42;;;3.38;;
64598;SDS011;51008;51.504;11.548;2023-02-01T10:40:02;14.60;;;2.83;;
64598;SDS011;51008;51.504;11.548;2023-02-01T10:45:30;11.00;;;2.22;;
64598;SDS011;51008;51.504;11.548;2023-02-01T10:50:35;11.53;;;2.70;;
64598;SDS011;51008;51.504;11.548;2023-02-01T10:56:04;12.60;;;2.88;;
64598;SDS011;51008;51.504;11.548;2023-02-01T11:01:07;15.48;;;3.55;;
64598;SDS011;51008;51.504;11.548;2023-02-01T11:06:11;14.02;;;2.85;;
64598;SDS011;51008;51.504;11.548;2023-02-01T11:11:31;14.40;;;3.03;;
64598;SDS011;51008;51.504;11.548;2023-02-01T11:16:34;13.80;;;3.22;;
64598;SDS011;51008;51.504;11.548;2023-02-01T11:21:37;14.38;;;3.10;;
64598;SDS011;51008;51.504;11.548;2023-02-01T11:26:39;16.38;;;3.42;;
64598;SDS011;51008;51.504;11.548;2023-02-01T11:31:41;14.63;;;3.42;;
64598;SDS011;51008;51.504;11.548;2023-02-01T11:36:42;16.48;;;3.80;;
64598;SDS011;51008;51.504;11.548;2023-02-01T11:42:04;14.65;;;3.65;;
64598;SDS011;51008;51.504;11.548;2023-02-01T11:47:19;15.23;;;3.05;;
64598;SDS011;51008;51.504;11.548;2023-02-01T11:57:52;13.73;;;3.10;;
64598;SDS011;51008;51.504;11.548;2023-02-01T12:14:56;10.75;;;2.45;;
64598;SDS011;51008;51.504;11.548;2023-02-01T12:30:39;15.48;;;2.70;;
64598;SDS011;51008;51.504;11.548;2023-02-01T12:41:08;14.95;;;2.78;;
64598;SDS011;51008;51.504;11.548;2023-02-01T12:46:30;14.35;;;2.60;;
64598;SDS011;51008;51.504;11.548;2023-02-01T12:51:38;12.32;;;2.58;;
64598;SDS011;51008;51.504;11.548;2023-02-01T12:56:43;11.38;;;2.97;;
64598;SDS011;51008;51.504;11.548;2023-02-01T13:01:56;11.15;;;2.83;;
64598;SDS011;51008;51.504;11.548;2023-02-01T13:07:07;15.85;;;2.80;;
64598;SDS011;51008;51.504;11.548;2023-02-01T13:12:15;17.08;;;2.80;;
64598;SDS011;51008;51.504;11.548;2023-02-01T13:17:23;11.73;;;2.60;;
64598;SDS011;51008;51.504;11.548;2023-02-01T13:22:37;15.05;;;2.55;;
64598;SDS011;51008;51.504;11.548;2023-02-01T13:27:41;11.95;;;2.70;;
64598;SDS011;51008;51.504;11.548;2023-02-01T13:38:11;16.30;;;2.97;;
64598;SDS011;51008;51.504;11.548;2023-02-01T13:43:26;13.05;;;3.50;;
64598;SDS011;51008;51.504;11.548;2023-02-01T13:48:33;14.27;;;3.70;;
64598;SDS011;51008;51.504;11.548;2023-02-01T13:53:47;7.95;;;2.42;;
64598;SDS011;51008;51.504;11.548;2023-02-01T13:58:49;14.13;;;3.25;;
64598;SDS011;51008;51.504;11.548;2023-02-01T14:19:26;16.35;;;3.33;;
64598;SDS011;51008;51.504;11.548;2023-02-01T14:24:33;10.73;;;3.00;;
64598;SDS011;51008;51.504;11.548;2023-02-01T14:29:42;9.85;;;3.58;;
64598;SDS011;51008;51.504;11.548;2023-02-01T14:34:53;9.17;;;2.87;;
64598;SDS011;51008;51.504;11.548;2023-02-01T14:40:00;16.00;;;3.53;;
64598;SDS011;51008;51.504;11.548;2023-02-01T15:00:49;13.60;;;3.70;;
64598;SDS011;51008;51.504;11.548;2023-02-01T15:05:56;13.98;;;3.55;;
64598;SDS011;51008;51.504;11.548;2023-02-01T15:10:59;12.27;;;3.65;;
64598;SDS011;51008;51.504;11.548;2023-02-01T15:16:03;15.23;;;3.53;;
64598;SDS011;51008;51.504;11.548;2023-02-01T15:21:05;10.18;;;3.13;;
64598;SDS011;51008;51.504;11.548;2023-02-01T15:26:30;10.52;;;2.95;;
64598;SDS011;51008;51.504;11.548;2023-02-01T15:31:33;8.93;;;3.03;;
64598;SDS011;51008;51.504;11.548;2023-02-01T15:36:37;1.58;;;0.90;;
64598;SDS011;51008;51.504;11.548;2023-02-01T15:41:39;1.63;;;0.70;;
64598;SDS011;51008;51.504;11.548;2023-02-01T15:46:42;0.90;;;0.60;;
64598;SDS011;51008;51.504;11.548;2023-02-01T15:51:47;0.90;;;0.70;;
64598;SDS011;51008;51.504;11.548;2023-02-01T15:56:53;1.98;;;0.90;;
64598;SDS011;51008;51.504;11.548;2023-02-01T16:01:56;0.28;;;0.28;;
64598;SDS011;51008;51.504;11.548;2023-02-01T16:18:43;1.83;;;0.40;;
64598;SDS011;51008;51.504;11.548;2023-02-01T16:23:49;2.55;;;0.98;;
64598;SDS011;51008;51.504;11.548;2023-02-01T16:28:51;1.17;;;0.80;;
64598;SDS011;51008;51.504;11.548;2023-02-01T16:33:52;6.10;;;0.80;;
64598;SDS011;51008;51.504;11.548;2023-02-01T16:38:53;5.63;;;0.80;;
64598;SDS011;51008;51.504;11.548;2023-02-01T16:43:56;1.50;;;0.60;;
64598;SDS011;51008;51.504;11.548;2023-02-01T16:48:58;4.07;;;0.75;;
64598;SDS011;51008;51.504;11.548;2023-02-01T16:54:00;2.70;;;0.50;;
64598;SDS011;51008;51.504;11.548;2023-02-01T16:59:02;5.95;;;0.70;;
64598;SDS011;51008;51.504;11.548;2023-02-01T17:04:03;3.92;;;1.00;;
64598;SDS011;51008;51.504;11.548;2023-02-01T17:09:04;5.47;;;0.80;;
64598;SDS011;51008;51.504;11.548;2023-02-01T17:14:14;4.30;;;0.70;;
64598;SDS011;51008;51.504;11.548;2023-02-01T17:19:19;2.60;;;0.68;;
64598;SDS011;51008;51.504;11.548;2023-02-01T17:24:23;4.20;;;0.85;;
64598;SDS011;51008;51.504;11.548;2023-02-01T17:29:28;4.10;;;1.15;;
64598;SDS011;51008;51.504;11.548;2023-02-01T17:34:30;6.32;;;0.98;;
64598;SDS011;51008;51.504;11.548;2023-02-01T17:39:31;2.42;;;0.95;;
64598;SDS011;51008;51.504;11.548;2023-02-01T17:44:32;3.95;;;1.02;;
64598;SDS011;51008;51.504;11.548;2023-02-01T17:49:33;3.35;;;0.95;;
64598;SDS011;51008;51.504;11.548;2023-02-01T17:54:34;4.18;;;1.20;;
64598;SDS011;51008;51.504;11.548;2023-02-01T17:59:35;3.65;;;1.17;;
64598;SDS011;51008;51.504;11.548;2023-02-01T18:04:36;3.95;;;0.90;;
64598;SDS011;51008;51.504;11.548;2023-02-01T18:09:37;8.65;;;1.23;;
64598;SDS011;51008;51.504;11.548;2023-02-01T18:14:38;5.72;;;1.25;;
64598;SDS011;51008;51.504;11.548;2023-02-01T18:19:39;7.80;;;1.55;;
64598;SDS011;51008;51.504;11.548;2023-02-01T18:24:40;4.10;;;1.40;;
64598;SDS011;51008;51.504;11.548;2023-02-01T18:29:41;6.53;;;1.40;;
64598;SDS011;51008;51.504;11.548;2023-02-01T18:34:42;8.98;;;1.45;;
64598;SDS011;51008;51.504;11.548;2023-02-01T18:39:43;4.38;;;1.25;;
64598;SDS011;51008;51.504;11.548;2023-02-01T18:44:44;8.40;;;1.27;;
64598;SDS011;51008;51.504;11.548;2023-02-01T18:49:45;9.10;;;2.10;;
64598;SDS011;51008;51.504;11.548;2023-02-01T18:54:49;6.03;;;1.00;;
64598;SDS011;51008;51.504;11.548;2023-02-01T18:59:50;6.65;;;1.42;;
64598;SDS011;51008;51.504;11.548;2023-02-01T19:04:51;8.45;;;1.63;;
64598;SDS011;51008;51.504;11.548;2023-02-01T19:09:52;7.07;;;1.20;;
64598;SDS011;51008;51.504;11.548;2023-02-01T19:14:53;7.78;;;1.30;;
64598;SDS011;51008;51.504;11.548;2023-02-01T19:19:54;4.95;;;1.65;;
64598;SDS011;51008;51.504;11.548;2023-02-01T19:24:55;6.50;;;1.55;;
64598;SDS011;51008;51.504;11.548;2023-02-01T19:29:56;10.32;;;1.70;;
64598;SDS011;51008;51.504;11.548;2023-02-01T19:34:57;5.82;;;1.60;;
64598;SDS011;51008;51.504;11.548;2023-02-01T19:39:58;4.63;;;1.20;;
64598;SDS011;51008;51.504;11.548;2023-02-01T19:44:59;5.85;;;1.48;;
64598;SDS011;51008;51.504;11.548;2023-02-01T19:50:00;5.40;;;1.80;;
64598;SDS011;51008;51.504;11.548;2023-02-01T19:55:01;7.10;;;1.67;;
64598;SDS011;51008;51.504;11.548;2023-02-01T20:00:04;10.18;;;1.90;;
64598;SDS011;51008;51.504;11.548;2023-02-01T20:05:07;5.13;;;1.67;;
64598;SDS011;51008;51.504;11.548;2023-02-01T20:10:09;12.63;;;2.45;;
64598;SDS011;51008;51.504;11.548;2023-02-01T20:15:10;9.68;;;2.33;;
64598;SDS011;51008;51.504;11.548;2023-02-01T20:20:11;9.88;;;2.10;;
64598;SDS011;51008;51.504;11.548;2023-02-01T20:25:12;12.60;;;2.00;;
64598;SDS011;51008;51.504;11.548;2023-02-01T20:30:13;15.13;;;2.35;;
64598;SDS011;51008;51.504;11.548;2023-02-01T20:35:15;7.30;;;1.75;;
64598;SDS011;51008;51.504;11.548;2023-02-01T20:40:16;8.60;;;1.95;;
64598;SDS011;51008;51.504;11.548;2023-02-01T20:45:17;9.60;;;2.13;;
64598;SDS011;51008;51.504;11.548;2023-02-01T20:50:19;8.63;;;1.83;;
64598;SDS011;51008;51.504;11.548;2023-02-01T20:55:20;8.45;;;2.00;;
64598;SDS011;51008;51.504;11.548;2023-02-01T21:00:21;13.18;;;2.33;;
64598;SDS011;51008;51.504;11.548;2023-02-01T21:05:22;8.85;;;1.63;;
64598;SDS011;51008;51.504;11.548;2023-02-01T21:10:23;8.63;;;1.60;;
64598;SDS011;51008;51.504;11.548;2023-02-01T21:15:27;13.57;;;2.10;;
64598;SDS011;51008;51.504;11.548;2023-02-01T21:20:28;12.77;;;2.27;;
64598;SDS011;51008;51.504;11.548;2023-02-01T21:25:29;11.32;;;2.20;;
64598;SDS011;51008;51.504;11.548;2023-02-01T21:30:30;9.25;;;2.70;;
64598;SDS011;51008;51.504;11.548;2023-02-01T21:35:31;12.63;;;2.10;;
64598;SDS011;51008;51.504;11.548;2023-02-01T21:40:32;11.23;;;1.88;;
64598;SDS011;51008;51.504;11.548;2023-02-01T21:45:33;11.23;;;2.60;;
64598;SDS011;51008;51.504;11.548;2023-02-01T21:50:34;13.73;;;2.20;;
64598;SDS011;51008;51.504;11.548;2023-02-01T21:55:35;14.80;;;2.08;;
64598;SDS011;51008;51.504;11.548;2023-02-01T22:00:36;11.93;;;2.35;;
64598;SDS011;51008;51.504;11.548;2023-02-01T22:05:37;18.98;;;2.80;;
64598;SDS011;51008;51.504;11.548;2023-02-01T22:10:38;15.20;;;3.08;;
64598;SDS011;51008;51.504;11.548;2023-02-01T22:15:39;14.30;;;2.28;;
64598;SDS011;51008;51.504;11.548;2023-02-01T22:20:40;10.75;;;1.90;;
64598;SDS011;51008;51.504;11.548;2023-02-01T22:25:41;19.58;;;3.05;;
64598;SDS011;51008;51.504;11.548;2023-02-01T22:30:42;15.90;;;2.60;;
64598;SDS011;51008;51.504;11.548;2023-02-01T22:35:46;10.85;;;2.00;;
64598;SDS011;51008;51.504;11.548;2023-02-01T22:40:54;17.10;;;2.45;;
64598;SDS011;51008;51.504;11.548;2023-02-01T22:46:04;16.75;;;2.22;;
64598;SDS011;51008;51.504;11.548;2023-02-01T22:51:08;13.60;;;2.05;;
64598;SDS011;51008;51.504;11.548;2023-02-01T22:56:18;12.18;;;2.15;;
64598;SDS011;51008;51.504;11.548;2023-02-01T23:01:19;14.90;;;1.88;;
64598;SDS011;51008;51.504;11.548;2023-02-01T23:06:20;14.65;;;2.00;;
64598;SDS011;51008;51.504;11.548;2023-02-01T23:11:21;15.55;;;2.17;;
64598;SDS011;51008;51.504;11.548;2023-02-01T23:16:23;8.77;;;1.95;;
64598;SDS011;51008;51.504;11.548;2023-02-01T23:21:24;11.75;;;2.05;;
64598;SDS011;51008;51.504;11.548;2023-02-01T23:26:27;14.52;;;2.00;;
64598;SDS011;51008;51.504;11.548;2023-02-01T23:31:30;6.83;;;1.63;;
64598;SDS011;51008;51.504;11.548;2023-02-01T23:36:33;11.80;;;2.13;;
64598;SDS011;51008;51.504;11.548;2023-02-01T23:41:34;13.43;;;1.92;;
64598;SDS011;51008;51.504;11.548;2023-02-01T23:46:36;11.50;;;1.88;;
64598;SDS011;51008;51.504;11.548;2023-02-01T23:51:38;8.73;;;1.83;;
64598;SDS011;51008;51.504;11.548;2023-02-01T23:56:41;6.70;;;1.35;;
